Time;durP1;ratioP1;P1;durP2;ratioP2;P2;SDS_P1;SDS_P2;PMS_P1;PMS_P2;Temp;Humidity;BMP_temperature;BMP_pressure;BME280_temperature;BME280_humidity;BME280_pressure;Samples;Min_cycle;Max_cycle;Signal;HPM_P1;HPM_P2
2022/01/18 00:00:08;;;;;;;7.45;3.10;;;;;;;;;;10425280;28;20120;-78
2022/01/18 00:05:15;;;;;;;10.63;4.63;;;;;;;;;;10420743;28;20029;-77
2022/01/18 00:10:18;;;;;;;7.13;2.97;;;;;;;;;;10428477;28;20160;-78
2022/01/18 00:15:40;;;;;;;6.67;2.53;;;;;;;;;;10433166;28;20043;-78
2022/01/18 00:20:56;;;;;;;4.53;1.30;;;;;;;;;;10431493;28;20060;-80
2022/01/18 00:26:19;;;;;;;5.70;3.33;;;;;;;;;;10429041;28;20041;-78
2022/01/18 00:31:38;;;;;;;13.00;3.93;;;;;;;;;;10435642;28;20033;-78
2022/01/18 00:36:54;;;;;;;7.80;2.97;;;;;;;;;;10428262;28;20312;-77
2022/01/18 00:41:59;;;;;;;3.33;1.70;;;;;;;;;;10411987;28;20030;-78
2022/01/18 00:47:03;;;;;;;5.10;2.07;;;;;;;;;;10423637;28;20030;-77
2022/01/18 00:52:08;;;;;;;6.22;2.78;;;;;;;;;;10425705;28;20055;-77
2022/01/18 00:57:14;;;;;;;4.67;2.40;;;;;;;;;;10423595;28;20064;-77
2022/01/18 01:02:17;;;;;;;6.87;3.27;;;;;;;;;;10433094;28;20041;-76
2022/01/18 01:07:23;;;;;;;4.63;2.22;;;;;;;;;;10426938;28;20337;-77
2022/01/18 01:12:27;;;;;;;4.80;2.00;;;;;;;;;;10424381;28;20048;-77
2022/01/18 01:17:41;;;;;;;11.37;3.90;;;;;;;;;;10428122;28;20036;-77
2022/01/18 01:44:23;;;;;;;7.43;2.90;;;;;;;;;;10423537;28;20063;-79
2022/01/18 01:49:27;;;;;;;9.87;3.00;;;;;;;;;;10434461;28;20040;-78
2022/01/18 01:54:32;;;;;;;5.17;2.43;;;;;;;;;;10427660;28;20107;-78
2022/01/18 01:59:35;;;;;;;5.87;2.87;;;;;;;;;;10443083;28;20045;-79
2022/01/18 02:04:39;;;;;;;4.30;2.35;;;;;;;;;;10432487;28;20037;-78
2022/01/18 02:09:43;;;;;;;7.93;3.33;;;;;;;;;;10426949;28;20370;-77
2022/01/18 02:14:53;;;;;;;10.43;3.63;;;;;;;;;;10406743;28;20029;-78
2022/01/18 02:25:23;;;;;;;6.60;3.47;;;;;;;;;;10425814;28;20346;-78
2022/01/18 02:30:26;;;;;;;10.83;4.20;;;;;;;;;;10418631;28;20036;-77
2022/01/18 02:35:32;;;;;;;4.63;1.88;;;;;;;;;;10433979;28;20045;-77
2022/01/18 02:40:36;;;;;;;3.27;1.87;;;;;;;;;;10402770;28;20049;-77
2022/01/18 02:45:39;;;;;;;7.33;3.33;;;;;;;;;;10418254;28;20076;-78
2022/01/18 02:50:42;;;;;;;6.07;1.43;;;;;;;;;;10421401;28;20172;-76
2022/01/18 02:55:50;;;;;;;7.33;3.07;;;;;;;;;;10425630;28;20076;-79
2022/01/18 03:06:15;;;;;;;9.50;3.77;;;;;;;;;;10432330;28;20041;-77
2022/01/18 03:11:20;;;;;;;7.30;3.83;;;;;;;;;;10421630;28;20147;-77
2022/01/18 03:16:23;;;;;;;9.27;4.53;;;;;;;;;;10420059;28;20036;-76
2022/01/18 03:21:26;;;;;;;8.02;2.67;;;;;;;;;;10440096;28;20060;-77
2022/01/18 03:28:03;;;;;;;7.73;2.90;;;;;;;;;;10446769;28;20044;-77
2022/01/18 03:31:55;;;;;;;12.87;5.13;;;;;;;;;;10432770;28;20115;-77
2022/01/18 03:36:59;;;;;;;7.55;2.92;;;;;;;;;;10439393;28;20052;-78
2022/01/18 03:42:33;;;;;;;5.07;2.65;;;;;;;;;;10436297;28;20041;-78
2022/01/18 03:47:35;;;;;;;7.97;2.87;;;;;;;;;;10440017;28;20033;-77
2022/01/18 03:52:40;;;;;;;5.75;1.77;;;;;;;;;;10448185;28;20041;-80
2022/01/18 03:57:45;;;;;;;8.32;3.33;;;;;;;;;;10431911;28;20048;-77
2022/01/18 04:02:49;;;;;;;9.40;3.10;;;;;;;;;;10420113;28;20064;-76
2022/01/18 04:07:53;;;;;;;8.20;3.20;;;;;;;;;;10428017;28;20034;-77
2022/01/18 04:12:59;;;;;;;8.23;2.50;;;;;;;;;;10429732;28;20033;-77
2022/01/18 04:18:16;;;;;;;12.37;4.17;;;;;;;;;;10414438;28;20484;-77
2022/01/18 04:28:43;;;;;;;8.10;2.97;;;;;;;;;;10434830;28;20064;-77
2022/01/18 04:33:47;;;;;;;7.47;3.03;;;;;;;;;;10434005;28;20109;-78
2022/01/18 04:38:50;;;;;;;9.50;3.77;;;;;;;;;;10430879;28;20069;-77
2022/01/18 04:44:12;;;;;;;7.27;2.37;;;;;;;;;;10434662;28;20037;-77
2022/01/18 04:49:16;;;;;;;8.43;3.57;;;;;;;;;;10420002;28;20029;-77
2022/01/18 04:54:22;;;;;;;8.25;3.42;;;;;;;;;;10429229;28;20092;-77
2022/01/18 04:59:27;;;;;;;8.53;3.63;;;;;;;;;;10437293;28;20049;-77
2022/01/18 05:04:29;;;;;;;;;;;;;;;;;;10452841;28;20105;-78
2022/01/18 05:09:32;;;;;;;10.33;3.90;;;;;;;;;;10432366;28;20527;-77
2022/01/18 05:14:37;;;;;;;7.20;2.60;;;;;;;;;;10420575;28;20063;-78
2022/01/18 05:19:55;;;;;;;15.27;4.60;;;;;;;;;;10440874;28;20103;-78
2022/01/18 05:25:00;;;;;;;7.03;2.97;;;;;;;;;;10432382;28;20025;-78
2022/01/18 05:30:05;;;;;;;15.77;5.53;;;;;;;;;;10439828;28;20067;-78
2022/01/18 05:35:08;;;;;;;8.43;2.93;;;;;;;;;;10430480;28;20029;-77
2022/01/18 05:40:12;;;;;;;11.82;4.57;;;;;;;;;;10426980;28;20097;-77
2022/01/18 05:45:16;;;;;;;14.20;2.67;;;;;;;;;;10450290;28;20037;-77
2022/01/18 05:50:19;;;;;;;15.50;4.30;;;;;;;;;;10437041;28;20041;-78
2022/01/18 05:55:22;;;;;;;15.13;4.37;;;;;;;;;;10430021;28;20104;-77
2022/01/18 06:00:28;;;;;;;9.67;3.33;;;;;;;;;;10429536;28;20084;-77
2022/01/18 06:10:52;;;;;;;10.23;3.57;;;;;;;;;;10427545;28;20041;-78
2022/01/18 06:15:56;;;;;;;13.07;4.90;;;;;;;;;;10424531;28;20051;-77
2022/01/18 06:20:59;;;;;;;7.87;3.03;;;;;;;;;;10429926;28;20041;-78
2022/01/18 06:26:03;;;;;;;15.53;5.83;;;;;;;;;;10437163;28;20045;-77
2022/01/18 06:31:08;;;;;;;8.70;3.63;;;;;;;;;;10429006;28;20045;-77
2022/01/18 06:36:11;;;;;;;6.07;2.97;;;;;;;;;;10437312;28;20640;-76
2022/01/18 06:41:14;;;;;;;19.90;6.30;;;;;;;;;;10459640;28;20045;-78
2022/01/18 06:46:19;;;;;;;7.63;3.15;;;;;;;;;;10446124;28;20057;-77
2022/01/18 06:51:22;;;;;;;10.00;3.50;;;;;;;;;;10450939;28;20045;-76
2022/01/18 06:56:26;;;;;;;4.83;2.20;;;;;;;;;;10451269;28;20038;-77
2022/01/18 07:01:36;;;;;;;15.73;5.07;;;;;;;;;;10444776;28;20042;-76
2022/01/18 07:06:40;;;;;;;18.33;6.03;;;;;;;;;;10447611;28;20108;-76
2022/01/18 07:11:43;;;;;;;12.03;3.87;;;;;;;;;;10444149;28;20048;-76
2022/01/18 07:16:49;;;;;;;16.87;5.67;;;;;;;;;;10429825;28;20025;-77
2022/01/18 07:21:54;;;;;;;17.20;6.03;;;;;;;;;;10437910;28;20067;-77
2022/01/18 07:26:57;;;;;;;17.63;5.60;;;;;;;;;;10439691;28;20549;-77
2022/01/18 07:32:01;;;;;;;13.10;5.23;;;;;;;;;;10444737;28;20049;-77
2022/01/18 07:37:05;;;;;;;18.33;6.53;;;;;;;;;;10425768;28;20029;-77
2022/01/18 07:42:08;;;;;;;12.60;4.77;;;;;;;;;;10429419;28;20045;-77
2022/01/18 07:47:13;;;;;;;17.77;5.13;;;;;;;;;;10431465;28;20047;-76
2022/01/18 07:52:20;;;;;;;24.30;6.50;;;;;;;;;;10437259;28;20076;-77
2022/01/18 07:57:23;;;;;;;16.07;5.40;;;;;;;;;;10428771;28;20738;-77
2022/01/18 08:02:27;;;;;;;24.13;6.43;;;;;;;;;;10419897;28;20053;-78
2022/01/18 08:07:32;;;;;;;16.33;5.80;;;;;;;;;;10448375;28;20037;-77
2022/01/18 08:12:35;;;;;;;14.48;5.03;;;;;;;;;;10445450;28;20037;-78
2022/01/18 08:17:40;;;;;;;17.10;5.40;;;;;;;;;;10450582;28;20037;-78
2022/01/18 08:22:44;;;;;;;13.52;5.55;;;;;;;;;;10446413;28;20299;-77
2022/01/18 08:27:48;;;;;;;14.25;5.78;;;;;;;;;;10432000;28;20099;-77
2022/01/18 08:32:55;;;;;;;17.43;5.97;;;;;;;;;;10429710;28;20101;-76
2022/01/18 08:37:58;;;;;;;18.07;5.27;;;;;;;;;;10432700;28;20514;-77
2022/01/18 08:43:01;;;;;;;15.40;5.43;;;;;;;;;;10445090;28;20103;-76
2022/01/18 08:48:05;;;;;;;;;;;;;;;;;;10445567;28;20045;-77
2022/01/18 08:53:10;;;;;;;11.37;4.23;;;;;;;;;;10449535;28;19925;-78
2022/01/18 08:58:14;;;;;;;15.63;4.23;;;;;;;;;;10448481;28;20135;-77
2022/01/18 09:03:17;;;;;;;12.27;4.47;;;;;;;;;;10446238;28;20049;-76
2022/01/18 09:08:22;;;;;;;15.27;4.27;;;;;;;;;;10447430;28;20048;-77
2022/01/18 09:13:25;;;;;;;13.57;4.00;;;;;;;;;;10443245;28;20405;-77
2022/01/18 09:18:29;;;;;;;13.13;4.00;;;;;;;;;;10430864;28;20053;-77
2022/01/18 09:23:34;;;;;;;12.75;4.40;;;;;;;;;;10442712;28;20049;-77
2022/01/18 09:28:37;;;;;;;11.10;3.83;;;;;;;;;;10446704;28;20056;-77
2022/01/18 09:33:40;;;;;;;15.80;4.85;;;;;;;;;;10426103;28;20072;-77
2022/01/18 09:38:45;;;;;;;18.08;5.88;;;;;;;;;;10440347;28;20119;-77
2022/01/18 09:43:48;;;;;;;9.63;3.25;;;;;;;;;;10439323;28;20049;-78
2022/01/18 09:48:52;;;;;;;7.30;3.05;;;;;;;;;;10436899;28;20049;-77
2022/01/18 09:53:57;;;;;;;11.02;3.70;;;;;;;;;;10436348;28;20041;-78
2022/01/18 09:59:07;;;;;;;10.80;3.90;;;;;;;;;;10456583;28;20116;-78
2022/01/18 10:04:10;;;;;;;;;;;;;;;;;;10435474;28;20041;-78
2022/01/18 10:09:16;;;;;;;11.00;3.38;;;;;;;;;;10433418;28;20004;-78
2022/01/18 10:14:20;;;;;;;13.27;3.83;;;;;;;;;;10438915;28;20048;-76
2022/01/18 10:19:30;;;;;;;14.68;4.13;;;;;;;;;;10445105;28;20064;-78
2022/01/18 10:24:36;;;;;;;10.38;3.35;;;;;;;;;;10448311;28;20049;-77
2022/01/18 10:29:40;;;;;;;8.30;3.05;;;;;;;;;;10438986;28;20068;-77
2022/01/18 10:40:04;;;;;;;5.00;1.45;;;;;;;;;;10436903;28;20038;-76
2022/01/18 10:45:11;;;;;;;10.18;2.13;;;;;;;;;;10441132;28;20057;-77
2022/01/18 10:50:16;;;;;;;9.30;2.13;;;;;;;;;;10450894;28;20033;-77
2022/01/18 10:55:23;;;;;;;9.90;2.67;;;;;;;;;;10448289;28;20462;-77
2022/01/18 11:00:29;;;;;;;7.38;2.38;;;;;;;;;;10431922;28;20040;-78
2022/01/18 11:05:33;;;;;;;10.07;2.22;;;;;;;;;;10436147;28;20068;-78
2022/01/18 11:10:36;;;;;;;;;;;;;;;;;;10416428;28;20038;-78
2022/01/18 11:16:05;;;;;;;8.63;2.80;;;;;;;;;;10432476;28;19974;-77
2022/01/18 11:21:08;;;;;;;10.38;2.20;;;;;;;;;;10442962;28;20053;-77
2022/01/18 11:26:13;;;;;;;6.80;1.92;;;;;;;;;;10441090;28;20354;-78
2022/01/18 11:31:18;;;;;;;8.73;2.95;;;;;;;;;;10445079;28;20567;-77
2022/01/18 11:36:25;;;;;;;12.10;2.75;;;;;;;;;;10448493;28;20030;-77
2022/01/18 11:41:31;;;;;;;10.48;2.30;;;;;;;;;;10436011;28;20105;-77
2022/01/18 11:46:40;;;;;;;4.10;1.38;;;;;;;;;;10450001;28;20037;-77
2022/01/18 11:51:45;;;;;;;4.88;1.52;;;;;;;;;;10445938;28;20049;-78
2022/01/18 11:56:49;;;;;;;10.68;2.25;;;;;;;;;;10443725;28;20036;-78
2022/01/18 12:01:54;;;;;;;6.78;2.33;;;;;;;;;;10443536;28;20444;-77
2022/01/18 12:06:58;;;;;;;5.65;2.20;;;;;;;;;;10448268;28;20345;-79
2022/01/18 12:12:04;;;;;;;6.82;2.78;;;;;;;;;;10445368;28;20050;-77
2022/01/18 12:17:16;;;;;;;8.02;3.22;;;;;;;;;;10437674;28;20056;-77
2022/01/18 12:22:39;;;;;;;11.50;3.00;;;;;;;;;;10443104;28;20048;-76
2022/01/18 12:27:43;;;;;;;11.52;2.45;;;;;;;;;;10445198;28;20045;-77
2022/01/18 12:33:08;;;;;;;7.07;2.65;;;;;;;;;;10447482;28;20052;-77
2022/01/18 12:38:11;;;;;;;;;;;;;;;;;;10449724;28;20092;-77
2022/01/18 12:48:39;;;;;;;3.88;1.42;;;;;;;;;;10426087;28;20139;-80
2022/01/18 12:53:47;;;;;;;7.60;2.75;;;;;;;;;;10422231;28;20103;-78
2022/01/18 12:58:51;;;;;;;8.35;2.67;;;;;;;;;;10443111;28;20037;-77
2022/01/18 13:03:56;;;;;;;10.20;2.97;;;;;;;;;;10443776;28;20034;-78
2022/01/18 13:09:00;;;;;;;8.75;3.05;;;;;;;;;;10431646;28;20041;-79
2022/01/18 13:14:08;;;;;;;9.20;2.70;;;;;;;;;;10429448;28;20040;-79
2022/01/18 13:25:04;;;;;;;9.23;2.13;;;;;;;;;;10439570;28;20045;-78
2022/01/18 13:30:09;;;;;;;3.22;1.48;;;;;;;;;;10434168;28;20044;-77
2022/01/18 13:35:21;;;;;;;8.30;1.85;;;;;;;;;;10434943;28;20191;-78
2022/01/18 13:40:26;;;;;;;7.47;2.17;;;;;;;;;;10429452;28;20037;-77
2022/01/18 13:45:31;;;;;;;13.32;3.00;;;;;;;;;;10431991;28;20049;-79
2022/01/18 13:50:41;;;;;;;7.55;2.33;;;;;;;;;;10438057;28;20025;-79
2022/01/18 13:55:45;;;;;;;6.70;2.22;;;;;;;;;;10427645;28;20048;-77
2022/01/18 14:00:48;;;;;;;11.70;3.65;;;;;;;;;;10428856;28;20366;-76
2022/01/18 14:05:53;;;;;;;11.23;2.60;;;;;;;;;;10431853;28;20045;-76
2022/01/18 14:11:00;;;;;;;8.13;1.90;;;;;;;;;;10421904;28;20048;-77
2022/01/18 14:16:19;;;;;;;5.53;1.60;;;;;;;;;;10436580;28;20087;-78
2022/01/18 14:21:28;;;;;;;4.85;1.67;;;;;;;;;;10416526;28;20113;-78
2022/01/18 14:26:31;;;;;;;2.80;1.60;;;;;;;;;;10407543;28;20050;-78
2022/01/18 14:31:34;;;;;;;6.67;1.63;;;;;;;;;;10438951;28;20093;-76
2022/01/18 14:36:53;;;;;;;1.83;1.07;;;;;;;;;;10438693;28;20041;-76
2022/01/18 14:41:58;;;;;;;3.72;1.40;;;;;;;;;;10440007;28;20041;-77
2022/01/18 14:52:22;;;;;;;9.63;1.47;;;;;;;;;;10435254;28;20033;-76
2022/01/18 14:57:28;;;;;;;3.83;1.23;;;;;;;;;;10447087;28;20120;-78
2022/01/18 15:02:34;;;;;;;6.13;1.57;;;;;;;;;;10498739;28;20044;-76
2022/01/18 15:07:44;;;;;;;3.67;1.13;;;;;;;;;;10501857;28;20037;-77
2022/01/18 15:12:48;;;;;;;9.43;1.70;;;;;;;;;;10499673;28;20556;-78
2022/01/18 15:17:52;;;;;;;7.13;1.60;;;;;;;;;;10498788;28;20108;-79
2022/01/18 15:22:56;;;;;;;5.53;1.75;;;;;;;;;;10503753;28;20032;-76
2022/01/18 15:28:19;;;;;;;7.30;1.30;;;;;;;;;;10474709;28;20037;-78
2022/01/18 15:33:22;;;;;;;7.93;1.67;;;;;;;;;;10473304;28;20521;-79
2022/01/18 15:38:27;;;;;;;5.43;1.60;;;;;;;;;;10464558;28;20094;-78
2022/01/18 15:43:30;;;;;;;7.77;1.77;;;;;;;;;;10495500;28;20102;-79
2022/01/18 15:48:33;;;;;;;8.03;2.20;;;;;;;;;;10498796;28;20085;-77
2022/01/18 15:53:38;;;;;;;5.53;2.03;;;;;;;;;;10478502;28;20044;-78
2022/01/18 15:58:41;;;;;;;5.40;2.20;;;;;;;;;;10487892;28;20471;-77
2022/01/18 16:03:44;;;;;;;3.97;1.77;;;;;;;;;;10514320;28;20029;-76
2022/01/18 16:08:49;;;;;;;6.17;1.90;;;;;;;;;;10494351;28;20059;-76
2022/01/18 16:13:52;;;;;;;7.83;2.60;;;;;;;;;;10512678;28;20062;-79
2022/01/18 16:18:56;;;;;;;6.90;1.80;;;;;;;;;;10510237;28;20036;-76
2022/01/18 16:24:00;;;;;;;7.37;2.37;;;;;;;;;;10492814;28;20047;-77
2022/01/18 16:29:04;;;;;;;7.13;2.17;;;;;;;;;;10511263;28;20259;-78
2022/01/18 16:34:08;;;;;;;3.97;1.90;;;;;;;;;;10516209;28;20033;-77
2022/01/18 16:39:12;;;;;;;8.98;2.28;;;;;;;;;;10488964;28;20045;-77
2022/01/18 16:44:16;;;;;;;7.10;2.33;;;;;;;;;;10473763;28;20851;-78
2022/01/18 16:49:19;;;;;;;3.53;1.50;;;;;;;;;;10500611;28;20101;-76
2022/01/18 16:54:25;;;;;;;5.83;1.80;;;;;;;;;;10498189;28;20176;-75
2022/01/18 16:59:29;;;;;;;6.87;1.90;;;;;;;;;;10481467;28;20082;-78
2022/01/18 17:04:33;;;;;;;7.78;1.80;;;;;;;;;;10465418;28;20285;-79
2022/01/18 17:09:38;;;;;;;7.55;1.98;;;;;;;;;;10471363;28;20044;-80
2022/01/18 17:14:41;;;;;;;6.87;2.10;;;;;;;;;;10498035;28;20032;-79
2022/01/18 17:19:45;;;;;;;;;;;;;;;;;;10508469;28;20091;-80
2022/01/18 17:24:49;;;;;;;9.17;2.50;;;;;;;;;;10493023;28;19920;-81
2022/01/18 17:29:53;;;;;;;11.00;3.20;;;;;;;;;;10489964;28;20058;-78
2022/01/18 17:34:56;;;;;;;12.17;2.93;;;;;;;;;;10472841;28;20067;-78
2022/01/18 17:40:00;;;;;;;7.57;2.17;;;;;;;;;;10474017;28;20481;-80
2022/01/18 17:45:04;;;;;;;8.70;2.53;;;;;;;;;;10469244;28;20048;-79
2022/01/18 17:50:08;;;;;;;8.77;3.13;;;;;;;;;;10460467;28;20032;-80
2022/01/18 17:55:13;;;;;;;8.02;2.80;;;;;;;;;;10453141;28;20181;-83
2022/01/18 18:00:16;;;;;;;6.03;2.70;;;;;;;;;;10456397;28;20050;-82
2022/01/18 18:05:19;;;;;;;11.77;2.95;;;;;;;;;;10448163;28;20469;-80
2022/01/18 18:10:25;;;;;;;6.30;2.47;;;;;;;;;;10475450;28;20037;-79
2022/01/18 18:15:28;;;;;;;8.53;3.20;;;;;;;;;;10447349;28;20184;-78
2022/01/18 18:20:33;;;;;;;12.93;3.50;;;;;;;;;;10470643;28;20037;-79
2022/01/18 18:25:37;;;;;;;17.38;3.90;;;;;;;;;;10457534;28;20070;-83
2022/01/18 18:30:40;;;;;;;9.63;3.77;;;;;;;;;;10467815;28;20057;-84
2022/01/18 18:35:56;;;;;;;14.17;4.10;;;;;;;;;;10457416;28;20151;-83
2022/01/18 18:41:04;;;;;;;13.33;4.17;;;;;;;;;;10479041;28;20031;-84
2022/01/18 18:46:08;;;;;;;15.17;4.30;;;;;;;;;;10478081;28;20060;-84
2022/01/18 18:51:11;;;;;;;10.17;3.83;;;;;;;;;;10458060;28;20710;-83
2022/01/18 18:56:16;;;;;;;10.00;3.50;;;;;;;;;;10471709;28;20072;-84
2022/01/18 19:01:28;;;;;;;11.23;3.40;;;;;;;;;;10465512;28;20068;-82
2022/01/18 19:06:32;;;;;;;8.13;3.50;;;;;;;;;;10480138;28;20098;-83
2022/01/18 19:11:37;;;;;;;12.52;4.38;;;;;;;;;;10462838;28;20040;-82
2022/01/18 19:16:41;;;;;;;10.63;4.47;;;;;;;;;;10442064;28;20033;-84
2022/01/18 19:21:45;;;;;;;9.63;4.32;;;;;;;;;;10445587;28;20045;-83
2022/01/18 19:26:50;;;;;;;12.35;4.18;;;;;;;;;;10447955;28;20245;-81
2022/01/18 19:31:53;;;;;;;11.67;3.87;;;;;;;;;;10473559;28;20104;-83
2022/01/18 19:36:57;;;;;;;10.80;4.23;;;;;;;;;;10491650;22;20048;-75
2022/01/18 19:42:02;;;;;;;14.60;4.72;;;;;;;;;;10517996;28;20063;-75
2022/01/18 19:47:05;;;;;;;16.60;4.30;;;;;;;;;;10530292;27;20048;-74
2022/01/18 19:52:08;;;;;;;6.17;2.83;;;;;;;;;;10533297;22;20063;-72
2022/01/18 19:57:13;;;;;;;9.30;3.37;;;;;;;;;;10496646;28;20631;-69
2022/01/18 20:02:16;;;;;;;10.60;3.63;;;;;;;;;;10457939;28;20047;-69
2022/01/18 20:07:20;;;;;;;8.37;3.83;;;;;;;;;;10458015;28;20029;-71
2022/01/18 20:12:25;;;;;;;13.13;3.80;;;;;;;;;;10457622;28;20090;-71
2022/01/18 20:17:28;;;;;;;10.37;4.00;;;;;;;;;;10462724;28;20344;-71
2022/01/18 20:22:32;;;;;;;10.80;4.23;;;;;;;;;;10465870;28;20071;-71
2022/01/18 20:27:39;;;;;;;10.57;3.20;;;;;;;;;;10456507;28;20041;-70
2022/01/18 20:32:45;;;;;;;5.77;2.20;;;;;;;;;;10461666;28;20036;-70
2022/01/18 20:37:49;;;;;;;3.80;1.87;;;;;;;;;;10458850;28;20063;-70
2022/01/18 20:48:15;;;;;;;14.30;2.80;;;;;;;;;;10460071;28;20431;-71
2022/01/18 20:53:19;;;;;;;5.17;1.93;;;;;;;;;;10461113;28;20119;-70
2022/01/18 20:58:24;;;;;;;5.82;2.33;;;;;;;;;;10468829;28;20071;-68
2022/01/18 21:03:27;;;;;;;6.10;2.50;;;;;;;;;;10460793;28;20043;-73
2022/01/18 21:08:30;;;;;;;7.53;2.17;;;;;;;;;;10439741;28;20124;-72
2022/01/18 21:13:35;;;;;;;2.93;1.00;;;;;;;;;;10458369;28;20029;-71
2022/01/18 21:18:38;;;;;;;3.50;1.20;;;;;;;;;;10466551;28;20040;-69
2022/01/18 21:23:41;;;;;;;3.38;1.05;;;;;;;;;;10468157;28;20055;-72
2022/01/18 21:28:47;;;;;;;10.57;2.13;;;;;;;;;;10475193;28;20048;-71
2022/01/18 21:33:50;;;;;;;3.87;1.27;;;;;;;;;;10467501;28;20075;-72
2022/01/18 21:38:53;;;;;;;9.23;2.10;;;;;;;;;;10475671;28;20135;-72
2022/01/18 21:43:58;;;;;;;7.37;1.20;;;;;;;;;;10455991;28;20040;-71
2022/01/18 21:49:03;;;;;;;2.07;1.00;;;;;;;;;;10464847;28;20036;-73
2022/01/18 21:54:08;;;;;;;6.97;2.40;;;;;;;;;;10464535;28;20048;-72
2022/01/18 21:59:14;;;;;;;6.13;2.57;;;;;;;;;;10468097;28;20139;-72
2022/01/18 22:04:17;;;;;;;3.37;1.10;;;;;;;;;;10471666;28;20040;-74
2022/01/18 22:09:20;;;;;;;5.93;1.27;;;;;;;;;;10492910;28;20275;-73
2022/01/18 22:14:24;;;;;;;4.20;1.77;;;;;;;;;;10470349;28;20075;-74
2022/01/18 22:19:28;;;;;;;4.27;1.60;;;;;;;;;;10469587;28;20419;-71
2022/01/18 22:24:31;;;;;;;10.13;1.93;;;;;;;;;;10461013;28;20045;-73
2022/01/18 22:29:36;;;;;;;7.93;2.30;;;;;;;;;;10458498;28;20029;-72
2022/01/18 22:34:39;;;;;;;9.43;1.77;;;;;;;;;;10455918;28;20037;-73
2022/01/18 22:39:42;;;;;;;3.80;1.27;;;;;;;;;;10457653;28;20033;-69
2022/01/18 22:44:47;;;;;;;4.23;1.60;;;;;;;;;;10452514;28;20429;-72
2022/01/18 22:49:50;;;;;;;6.07;1.57;;;;;;;;;;10456395;28;20184;-73
2022/01/18 22:54:53;;;;;;;5.73;1.33;;;;;;;;;;10459668;28;20127;-73
2022/01/18 22:59:58;;;;;;;5.10;2.20;;;;;;;;;;10453849;28;20037;-72
2022/01/18 23:05:02;;;;;;;2.27;0.63;;;;;;;;;;10451383;28;20484;-72
2022/01/18 23:10:06;;;;;;;3.63;1.60;;;;;;;;;;10453749;28;20074;-72
2022/01/18 23:15:11;;;;;;;3.00;1.10;;;;;;;;;;10449427;28;20087;-73
2022/01/18 23:20:15;;;;;;;2.83;1.10;;;;;;;;;;10467984;28;20385;-71
2022/01/18 23:25:18;;;;;;;3.10;1.27;;;;;;;;;;10467599;28;20037;-70
2022/01/18 23:30:23;;;;;;;3.70;1.50;;;;;;;;;;10471503;28;20128;-71
2022/01/18 23:35:27;;;;;;;7.13;1.00;;;;;;;;;;10481538;28;20098;-73
2022/01/18 23:45:53;;;;;;;11.67;1.80;;;;;;;;;;10464209;28;20040;-73
2022/01/18 23:50:56;;;;;;;5.23;2.10;;;;;;;;;;10468420;28;20033;-73
2022/01/18 23:55:59;;;;;;;4.40;1.07;;;;;;;;;;10469807;28;20037;-71
